Terminal Aerodrome Forecast
Issued by NWS Missoula, MT

Home | Current Version | Previous Version | Text Only | Print | Product List | Glossary On
Versions: 1 2 3 4 5 6 7 8 9 10 11 12 13 14 15 16 17
000
FTUS45 KMSO 291720
TAFBTM
TAF
KBTM 291720Z 2918/3018 15011KT 4SM HZ VCSH SKC
     FM291900 20015G30KT 6SM FU VCTS SCT080CB OVC100
     FM300200 VRB07KT P6SM VCSH BKN080
     FM301700 25015KT P6SM BKN100=

USA.gov is the U.S. government's official web portal to all federal, state and local government web resources and services.